Time,TemperatureF,DewpointF,PressureIn,WindDirection,WindDirectionDegrees,WindSpeedMPH,WindSpeedGustMPH,Humidity,HourlyPrecipIn,Conditions,Clouds,dailyrainin,SoftwareType,DateUTC
2013-03-22 00:00:00,30.9,28.9,27.02,SSW,202,5.4,6.3,92,0.00,,---,0.00,VWS V14.01,2013-03-22 05:00:00,
2013-03-22 00:03:00,31.5,29.7,27.02,SE,135,5.6,8.5,93,0.00,,---,0.00,VWS V14.01,2013-03-22 05:03:00,
2013-03-22 00:08:00,31.5,29.7,27.02,SE,135,6.5,8.7,93,0.00,,---,0.00,VWS V14.01,2013-03-22 05:08:00,
2013-03-22 00:13:00,31.5,29.7,27.02,SE,135,3.4,8.7,93,0.00,,---,0.00,VWS V14.01,2013-03-22 05:13:00,
2013-03-22 00:15:00,31.1,29.0,27.02,South,180,4.9,7.2,92,0.00,,---,0.00,VWS V14.01,2013-03-22 05:15:00,
2013-03-22 00:18:00,31.6,29.9,27.02,SE,135,3.8,4.7,93,0.00,,---,0.00,VWS V14.01,2013-03-22 05:18:00,
2013-03-22 00:23:00,31.5,29.4,27.02,SE,135,4.3,5.8,92,0.00,,---,0.00,VWS V14.01,2013-03-22 05:23:00,
2013-03-22 00:28:00,31.3,29.0,27.02,SE,135,4.0,5.8,91,0.00,,---,0.00,VWS V14.01,2013-03-22 05:28:00,
2013-03-22 00:30:00,31.1,29.0,26.99,South,180,6.3,10.7,92,0.00,,---,0.00,VWS V14.01,2013-03-22 05:30:00,
2013-03-22 00:33:00,31.1,28.8,27.02,SE,135,3.1,4.3,91,0.00,,---,0.00,VWS V14.01,2013-03-22 05:33:00,
2013-03-22 00:38:00,31.1,28.5,27.02,South,180,2.9,4.7,90,0.00,,---,0.00,VWS V14.01,2013-03-22 05:38:00,
2013-03-22 00:43:00,31.1,29.0,27.02,South,180,3.4,4.7,92,0.00,,---,0.00,VWS V14.01,2013-03-22 05:43:00,
2013-03-22 00:45:00,31.1,29.0,27.02,South,180,6.3,7.8,92,0.00,,---,0.00,VWS V14.01,2013-03-22 05:45:00,
2013-03-22 00:48:00,31.1,29.0,27.02,South,180,2.7,3.8,92,0.00,,---,0.00,VWS V14.01,2013-03-22 05:48:00,
2013-03-22 00:53:00,30.7,28.7,27.02,South,180,3.4,3.8,92,0.00,,---,0.00,VWS V14.01,2013-03-22 05:53:00,
2013-03-22 00:58:00,30.9,28.9,27.02,South,180,3.6,6.3,92,0.00,,---,0.00,VWS V14.01,2013-03-22 05:58:00,
2013-03-22 01:00:00,31.3,29.5,27.02,South,180,7.8,8.7,93,0.00,,---,0.00,VWS V14.01,2013-03-22 06:00:00,
2013-03-22 01:03:00,31.1,29.0,27.02,South,180,5.4,6.3,92,0.00,,---,0.00,VWS V14.01,2013-03-22 06:03:00,
2013-03-22 01:08:00,31.1,28.8,27.02,SSE,158,5.6,7.2,91,0.00,,---,0.00,VWS V14.01,2013-03-22 06:08:00,
2013-03-22 01:13:00,31.1,29.0,27.02,SSE,158,4.7,7.2,92,0.00,,---,0.00,VWS V14.01,2013-03-22 06:13:00,
2013-03-22 01:15:00,31.6,29.3,27.02,SW,225,4.3,8.5,91,0.00,,---,0.00,VWS V14.01,2013-03-22 06:15:00,
2013-03-22 01:18:00,31.1,29.0,26.99,South,180,4.0,6.3,92,0.00,,---,0.00,VWS V14.01,2013-03-22 06:18:00,
2013-03-22 01:23:00,31.1,29.0,26.99,South,180,8.1,8.5,92,0.00,,---,0.00,VWS V14.01,2013-03-22 06:23:00,
2013-03-22 01:28:00,31.1,29.0,26.99,SSE,158,7.8,10.7,92,0.00,,---,0.00,VWS V14.01,2013-03-22 06:28:00,
2013-03-22 01:30:00,32.0,29.4,27.02,SSW,202,3.4,7.2,90,0.00,,---,0.00,VWS V14.01,2013-03-22 06:30:00,
2013-03-22 01:33:00,31.1,29.0,27.02,South,180,6.5,7.8,92,0.00,,---,0.00,VWS V14.01,2013-03-22 06:33:00,
2013-03-22 01:38:00,31.1,29.0,27.02,South,180,4.3,7.8,92,0.00,,---,0.00,VWS V14.01,2013-03-22 06:38:00,
2013-03-22 01:43:00,31.1,29.0,27.02,South,180,4.0,7.8,92,0.00,,---,0.00,VWS V14.01,2013-03-22 06:43:00,
2013-03-22 01:45:00,32.0,29.1,27.02,NW,315,3.1,5.4,89,0.00,,---,0.00,VWS V14.01,2013-03-22 06:45:00,
2013-03-22 01:48:00,31.1,29.0,27.02,South,180,5.6,6.3,92,0.00,,---,0.00,VWS V14.01,2013-03-22 06:48:00,
2013-03-22 01:53:00,31.1,29.0,27.02,SSE,158,5.4,6.3,92,0.00,,---,0.00,VWS V14.01,2013-03-22 06:53:00,
2013-03-22 01:58:00,31.3,29.5,27.02,South,180,8.7,8.7,93,0.00,,---,0.00,VWS V14.01,2013-03-22 06:58:00,
2013-03-22 02:00:00,31.1,28.0,27.02,SW,225,3.8,6.5,88,0.00,,---,0.00,VWS V14.01,2013-03-22 07:00:00,
2013-03-22 02:04:00,31.5,29.7,27.02,South,180,4.9,7.8,93,0.00,,---,0.00,VWS V14.01,2013-03-22 07:04:00,
2013-03-22 02:09:00,31.6,29.6,27.02,SSW,202,6.5,8.5,92,0.00,,---,0.00,VWS V14.01,2013-03-22 07:09:00,
2013-03-22 02:14:00,31.6,29.3,27.02,SW,225,4.0,8.5,91,0.00,,---,0.00,VWS V14.01,2013-03-22 07:14:00,
2013-03-22 02:15:00,30.0,27.2,27.02,SSW,202,4.0,5.4,89,0.00,,---,0.00,VWS V14.01,2013-03-22 07:15:00,
2013-03-22 02:19:00,31.6,29.3,27.02,South,180,4.9,5.4,91,0.00,,---,0.00,VWS V14.01,2013-03-22 07:19:00,
2013-03-22 02:24:00,31.6,29.0,27.02,SW,225,4.9,7.2,90,0.00,,---,0.00,VWS V14.01,2013-03-22 07:24:00,
2013-03-22 02:28:00,32.0,29.4,27.02,WNW,292,2.5,7.2,90,0.00,,---,0.00,VWS V14.01,2013-03-22 07:28:00,
2013-03-22 02:30:00,29.8,27.5,27.02,SSW,202,3.4,6.0,91,0.00,,---,0.00,VWS V14.01,2013-03-22 07:30:00,
2013-03-22 02:33:00,32.0,29.4,27.02,SW,225,2.5,5.4,90,0.00,,---,0.00,VWS V14.01,2013-03-22 07:33:00,
2013-03-22 02:38:00,32.2,29.6,27.02,West,270,2.7,5.4,90,0.00,,---,0.00,VWS V14.01,2013-03-22 07:38:00,
2013-03-22 02:43:00,32.0,29.1,27.02,West,270,2.7,5.4,89,0.00,,---,0.00,VWS V14.01,2013-03-22 07:43:00,
2013-03-22 02:45:00,29.5,27.5,26.99,SW,225,3.6,8.1,92,0.00,,---,0.00,VWS V14.01,2013-03-22 07:45:00,
2013-03-22 02:48:00,31.6,28.8,27.02,WSW,248,4.0,5.8,89,0.00,,---,0.00,VWS V14.01,2013-03-22 07:48:00,
2013-03-22 02:53:00,31.6,28.8,27.02,SW,225,3.8,6.5,89,0.00,,---,0.00,VWS V14.01,2013-03-22 07:53:00,
2013-03-22 02:58:00,31.1,28.0,27.02,SSW,202,3.6,6.5,88,0.00,,---,0.00,VWS V14.01,2013-03-22 07:58:00,
2013-03-22 03:00:00,29.1,26.8,27.02,SW,225,2.7,3.6,91,0.00,,---,0.00,VWS V14.01,2013-03-22 08:00:00,
2013-03-22 03:03:00,30.7,27.6,27.02,SW,225,3.8,4.0,88,0.00,,---,0.00,VWS V14.01,2013-03-22 08:03:00,
2013-03-22 03:08:00,30.4,27.3,27.02,SW,225,3.6,5.4,88,0.00,,---,0.00,VWS V14.01,2013-03-22 08:08:00,
2013-03-22 03:13:00,30.0,27.2,27.02,SW,225,3.4,5.4,89,0.00,,---,0.00,VWS V14.01,2013-03-22 08:13:00,
2013-03-22 03:15:00,28.6,26.8,27.02,NW,315,2.0,4.0,93,0.00,,---,0.00,VWS V14.01,2013-03-22 08:15:00,
2013-03-22 03:18:00,30.0,27.5,27.02,SW,225,4.3,6.0,90,0.00,,---,0.00,VWS V14.01,2013-03-22 08:18:00,
2013-03-22 03:23:00,30.0,27.7,27.02,SW,225,2.7,6.0,91,0.00,,---,0.00,VWS V14.01,2013-03-22 08:23:00,
2013-03-22 03:28:00,29.8,27.5,27.02,SSW,202,3.8,6.0,91,0.00,,---,0.00,VWS V14.01,2013-03-22 08:28:00,
2013-03-22 03:33:00,29.8,27.8,26.99,SW,225,3.1,4.9,92,0.00,,---,0.00,VWS V14.01,2013-03-22 08:33:00,
2013-03-22 03:38:00,29.5,27.2,26.99,SE,135,3.1,4.9,91,0.00,,---,0.00,VWS V14.01,2013-03-22 08:38:00,
2013-03-22 03:43:00,29.5,27.5,26.99,South,180,5.8,8.1,92,0.00,,---,0.00,VWS V14.01,2013-03-22 08:43:00,
2013-03-22 03:45:00,29.3,28.8,26.99,NW,315,2.5,5.6,98,0.00,,---,0.00,VWS V14.01,2013-03-22 08:45:00,
2013-03-22 03:48:00,29.3,27.3,27.02,NE,45,0.0,3.6,92,0.00,,---,0.00,VWS V14.01,2013-03-22 08:48:00,
2013-03-22 03:53:00,28.9,26.6,27.02,North,0,0.9,3.6,91,0.00,,---,0.00,VWS V14.01,2013-03-22 08:53:00,
2013-03-22 03:58:00,28.9,26.6,27.02,West,270,1.1,3.6,91,0.00,,---,0.00,VWS V14.01,2013-03-22 08:58:00,
2013-03-22 04:00:00,27.9,26.9,27.02,NW,315,3.4,5.4,96,0.00,,---,0.00,VWS V14.01,2013-03-22 09:00:00,
2013-03-22 04:03:00,29.5,27.7,27.02,SW,225,2.2,4.0,93,0.00,,---,0.00,VWS V14.01,2013-03-22 09:03:00,
2013-03-22 04:08:00,29.3,27.8,27.02,South,180,2.5,4.0,94,0.00,,---,0.00,VWS V14.01,2013-03-22 09:08:00,
2013-03-22 04:13:00,28.8,27.0,27.02,SE,135,0.0,4.0,93,0.00,,---,0.00,VWS V14.01,2013-03-22 09:13:00,
2013-03-22 04:15:00,28.0,27.3,26.99,NW,315,3.6,6.0,97,0.00,,---,0.00,VWS V14.01,2013-03-22 09:15:00,
2013-03-22 04:18:00,28.8,26.7,27.02,WNW,292,2.7,3.1,92,0.00,,---,0.00,VWS V14.01,2013-03-22 09:18:00,
2013-03-22 04:23:00,28.4,26.6,27.02,NW,315,2.2,3.4,93,0.00,,---,0.00,VWS V14.01,2013-03-22 09:23:00,
2013-03-22 04:28:00,28.8,27.2,27.02,West,270,4.3,4.3,94,0.00,,---,0.00,VWS V14.01,2013-03-22 09:28:00,
2013-03-22 04:30:00,27.3,26.6,26.99,NW,315,3.8,5.4,97,0.00,,---,0.00,VWS V14.01,2013-03-22 09:30:00,
2013-03-22 04:33:00,29.1,28.1,26.99,NW,315,3.8,4.9,96,0.00,,---,0.00,VWS V14.01,2013-03-22 09:33:00,
2013-03-22 04:38:00,29.3,28.6,26.99,West,270,3.1,5.6,97,0.00,,---,0.00,VWS V14.01,2013-03-22 09:38:00,
2013-03-22 04:43:00,29.3,28.8,26.99,West,270,2.9,5.6,98,0.00,,---,0.00,VWS V14.01,2013-03-22 09:43:00,
2013-03-22 04:45:00,26.1,24.3,26.99,NE,45,2.5,4.3,93,0.00,,---,0.00,VWS V14.01,2013-03-22 09:45:00,
2013-03-22 04:48:00,28.6,27.8,27.02,North,0,2.0,2.7,97,0.00,,---,0.00,VWS V14.01,2013-03-22 09:48:00,
2013-03-22 04:53:00,28.0,27.3,27.02,NW,315,2.7,3.8,97,0.00,,---,0.00,VWS V14.01,2013-03-22 09:53:00,
2013-03-22 04:58:00,27.9,26.9,27.02,NW,315,2.0,4.3,96,0.00,,---,0.00,VWS V14.01,2013-03-22 09:58:00,
2013-03-22 05:00:00,24.6,22.6,26.99,West,270,0.0,2.5,92,0.00,,---,0.00,VWS V14.01,2013-03-22 10:00:00,
2013-03-22 05:03:00,27.9,27.1,26.99,NW,315,3.8,3.8,97,0.00,,---,0.00,VWS V14.01,2013-03-22 10:03:00,
2013-03-22 05:08:00,27.9,27.1,26.99,NW,315,2.9,3.8,97,0.00,,---,0.00,VWS V14.01,2013-03-22 10:08:00,
2013-03-22 05:13:00,27.9,27.1,26.99,NW,315,4.0,5.8,97,0.00,,---,0.00,VWS V14.01,2013-03-22 10:13:00,
2013-03-22 05:15:00,26.1,24.8,26.99,West,270,2.7,3.6,95,0.00,,---,0.00,VWS V14.01,2013-03-22 10:15:00,
2013-03-22 05:18:00,28.0,27.5,26.99,NW,315,2.9,4.9,98,0.00,,---,0.00,VWS V14.01,2013-03-22 10:18:00,
2013-03-22 05:23:00,28.0,27.5,26.99,NW,315,4.7,5.4,98,0.00,,---,0.00,VWS V14.01,2013-03-22 10:23:00,
2013-03-22 05:28:00,27.7,27.2,26.99,NW,315,3.6,5.4,98,0.00,,---,0.00,VWS V14.01,2013-03-22 10:28:00,
2013-03-22 05:30:00,24.8,22.8,26.99,North,0,2.5,2.7,92,0.00,,---,0.00,VWS V14.01,2013-03-22 10:30:00,
2013-03-22 05:33:00,27.0,26.0,26.99,NW,315,3.1,3.8,96,0.00,,---,0.00,VWS V14.01,2013-03-22 10:33:00,
2013-03-22 05:38:00,27.0,25.7,26.99,NNW,338,4.3,4.3,95,0.00,,---,0.00,VWS V14.01,2013-03-22 10:38:00,
2013-03-22 05:43:00,26.2,24.8,26.99,North,0,1.6,4.3,94,0.00,,---,0.00,VWS V14.01,2013-03-22 10:43:00,
2013-03-22 05:45:00,25.3,23.1,26.99,West,270,0.0,2.9,91,0.00,,---,0.00,VWS V14.01,2013-03-22 10:45:00,
2013-03-22 05:48:00,25.3,23.4,26.99,NE,45,0.0,2.5,92,0.00,,---,0.00,VWS V14.01,2013-03-22 10:48:00,
2013-03-22 05:53:00,24.8,22.3,26.99,SW,225,0.9,2.5,90,0.00,,---,0.00,VWS V14.01,2013-03-22 10:53:00,
2013-03-22 05:58:00,25.0,22.7,26.99,SW,225,0.0,2.5,91,0.00,,---,0.00,VWS V14.01,2013-03-22 10:58:00,
2013-03-22 06:00:00,24.6,22.1,26.99,NW,315,0.9,1.6,90,0.00,,---,0.00,VWS V14.01,2013-03-22 11:00:00,
2013-03-22 06:03:00,24.8,22.8,26.99,SW,225,2.9,2.9,92,0.00,,---,0.00,VWS V14.01,2013-03-22 11:03:00,
2013-03-22 06:08:00,25.7,24.0,26.99,NW,315,1.6,3.4,93,0.00,,---,0.00,VWS V14.01,2013-03-22 11:08:00,
2013-03-22 06:13:00,25.9,24.4,26.99,NW,315,2.5,3.6,94,0.00,,---,0.00,VWS V14.01,2013-03-22 11:13:00,
2013-03-22 06:15:00,24.8,22.5,26.99,North,0,2.5,2.5,91,0.00,,---,0.00,VWS V14.01,2013-03-22 11:15:00,
2013-03-22 06:18:00,26.1,25.1,26.99,NW,315,2.2,2.7,96,0.00,,---,0.00,VWS V14.01,2013-03-22 11:18:00,
2013-03-22 06:23:00,26.1,24.8,26.99,North,0,0.9,2.7,95,0.00,,---,0.00,VWS V14.01,2013-03-22 11:23:00,
2013-03-22 06:28:00,25.2,23.2,26.99,NNE,22,1.6,2.7,92,0.00,,---,0.00,VWS V14.01,2013-03-22 11:28:00,
2013-03-22 06:30:00,22.8,19.0,26.99,North,0,2.2,4.0,85,0.00,,---,0.00,VWS V14.01,2013-03-22 11:30:00,
2013-03-22 06:33:00,25.0,22.7,26.99,NW,315,1.6,2.9,91,0.00,,---,0.00,VWS V14.01,2013-03-22 11:33:00,
2013-03-22 06:38:00,25.3,23.4,26.99,West,270,0.9,2.9,92,0.00,,---,0.00,VWS V14.01,2013-03-22 11:38:00,
2013-03-22 06:43:00,25.5,23.5,26.99,West,270,1.3,2.9,92,0.00,,---,0.00,VWS V14.01,2013-03-22 11:43:00,
2013-03-22 06:45:00,21.4,17.0,26.99,West,270,2.0,3.1,83,0.00,,---,0.00,VWS V14.01,2013-03-22 11:45:00,
2013-03-22 06:48:00,25.2,22.9,26.99,South,180,0.0,1.3,91,0.00,,---,0.00,VWS V14.01,2013-03-22 11:48:00,
2013-03-22 06:53:00,24.6,22.1,26.99,SE,135,0.0,1.3,90,0.00,,---,0.00,VWS V14.01,2013-03-22 11:53:00,
2013-03-22 06:58:00,24.6,22.1,26.99,NW,315,1.3,1.6,90,0.00,,---,0.00,VWS V14.01,2013-03-22 11:58:00,
2013-03-22 07:00:00,22.8,20.1,27.02,NW,315,2.5,2.9,89,0.00,,---,0.00,VWS V14.01,2013-03-22 12:00:00,
2013-03-22 07:03:00,24.6,22.1,26.99,NE,45,0.0,2.2,90,0.00,,---,0.00,VWS V14.01,2013-03-22 12:03:00,
2013-03-22 07:08:00,24.6,22.1,26.99,West,270,1.3,2.2,90,0.00,,---,0.00,VWS V14.01,2013-03-22 12:08:00,
2013-03-22 07:13:00,24.8,22.5,26.99,NW,315,1.3,2.5,91,0.00,,---,0.00,VWS V14.01,2013-03-22 12:13:00,
2013-03-22 07:15:00,26.1,25.1,27.02,WNW,292,2.7,5.6,96,0.00,,---,0.00,VWS V14.01,2013-03-22 12:15:00,
2013-03-22 07:18:00,24.6,22.4,26.99,North,0,2.2,2.9,91,0.00,,---,0.00,VWS V14.01,2013-03-22 12:18:00,
2013-03-22 07:23:00,24.3,21.8,26.99,North,0,2.7,4.0,90,0.00,,---,0.00,VWS V14.01,2013-03-22 12:23:00,
2013-03-22 07:28:00,23.0,19.7,26.99,North,0,2.7,4.0,87,0.00,,---,0.00,VWS V14.01,2013-03-22 12:28:00,
2013-03-22 07:30:00,29.5,26.4,27.02,WSW,248,6.0,7.2,88,0.00,,---,0.00,VWS V14.01,2013-03-22 12:30:00,
2013-03-22 07:33:00,22.8,19.0,26.99,North,0,2.9,2.9,85,0.00,,---,0.00,VWS V14.01,2013-03-22 12:33:00,
2013-03-22 07:38:00,22.3,18.5,26.99,North,0,2.0,3.1,85,0.00,,---,0.00,VWS V14.01,2013-03-22 12:38:00,
2013-03-22 07:43:00,21.6,17.2,26.99,North,0,0.9,3.1,83,0.00,,---,0.00,VWS V14.01,2013-03-22 12:43:00,
2013-03-22 07:45:00,32.2,25.8,27.02,WNW,292,6.5,8.5,77,0.00,,---,0.00,VWS V14.01,2013-03-22 12:45:00,
2013-03-22 07:48:00,21.7,17.7,27.02,NW,315,1.3,2.0,84,0.00,,---,0.00,VWS V14.01,2013-03-22 12:48:00,
2013-03-22 07:53:00,22.1,18.6,27.02,West,270,2.0,2.0,86,0.00,,---,0.00,VWS V14.01,2013-03-22 12:53:00,
2013-03-22 07:58:00,22.8,20.1,27.02,NW,315,2.0,2.7,89,0.00,,---,0.00,VWS V14.01,2013-03-22 12:58:00,
2013-03-22 08:00:00,34.0,26.6,27.02,WNW,292,4.7,10.7,74,0.00,,---,0.00,VWS V14.01,2013-03-22 13:00:00,
2013-03-22 08:03:00,23.7,21.5,27.02,NW,315,3.1,3.1,91,0.00,,---,0.00,VWS V14.01,2013-03-22 13:03:00,
2013-03-22 08:08:00,24.3,22.5,27.02,West,270,3.8,4.3,93,0.00,,---,0.00,VWS V14.01,2013-03-22 13:08:00,
2013-03-22 08:13:00,25.7,24.7,27.02,NW,315,3.1,5.6,96,0.00,,---,0.00,VWS V14.01,2013-03-22 13:13:00,
2013-03-22 08:15:00,36.3,27.1,27.02,West,270,5.8,7.6,69,0.00,,---,0.00,VWS V14.01,2013-03-22 13:15:00,
2013-03-22 08:18:00,26.4,25.2,27.02,NW,315,2.5,4.0,95,0.00,,---,0.00,VWS V14.01,2013-03-22 13:18:00,
2013-03-22 08:23:00,28.2,27.0,27.02,West,270,5.4,5.6,95,0.00,,---,0.00,VWS V14.01,2013-03-22 13:23:00,
2013-03-22 08:28:00,29.1,26.6,27.02,WNW,292,5.6,7.2,90,0.00,,---,0.00,VWS V14.01,2013-03-22 13:28:00,
2013-03-22 08:30:00,38.3,26.8,27.02,West,270,4.9,8.1,63,0.00,,---,0.00,VWS V14.01,2013-03-22 13:30:00,
2013-03-22 08:33:00,30.0,25.8,27.02,West,270,4.9,6.0,84,0.00,,---,0.00,VWS V14.01,2013-03-22 13:33:00,
2013-03-22 08:38:00,30.9,25.5,27.02,West,270,3.6,6.0,80,0.00,,---,0.00,VWS V14.01,2013-03-22 13:38:00,
2013-03-22 08:43:00,32.0,25.9,27.02,WNW,292,7.8,7.8,78,0.00,,---,0.00,VWS V14.01,2013-03-22 13:43:00,
2013-03-22 08:48:00,32.4,25.6,27.02,West,270,4.0,7.8,76,0.00,,---,0.00,VWS V14.01,2013-03-22 13:48:00,
2013-03-22 08:53:00,33.1,26.4,27.02,West,270,4.0,7.8,76,0.00,,---,0.00,VWS V14.01,2013-03-22 13:53:00,
2013-03-22 08:58:00,33.6,26.2,27.02,WSW,248,5.6,10.7,74,0.00,,---,0.00,VWS V14.01,2013-03-22 13:58:00,
2013-03-22 09:00:00,40.6,26.6,27.02,WNW,292,4.0,10.5,57,0.00,,---,0.00,VWS V14.01,2013-03-22 14:00:00,
2013-03-22 09:03:00,34.7,27.0,27.02,WNW,292,5.6,6.3,73,0.00,,---,0.00,VWS V14.01,2013-03-22 14:03:00,
2013-03-22 09:08:00,35.1,27.0,27.02,SW,225,4.7,7.6,72,0.00,,---,0.00,VWS V14.01,2013-03-22 14:08:00,
2013-03-22 09:13:00,36.0,26.8,27.02,West,270,6.5,7.6,69,0.00,,---,0.00,VWS V14.01,2013-03-22 14:13:00,
2013-03-22 09:15:00,42.8,27.3,27.02,West,270,4.7,9.6,54,0.00,,---,0.00,VWS V14.01,2013-03-22 14:15:00,
2013-03-22 09:18:00,36.7,27.1,27.02,West,270,5.6,6.7,68,0.00,,---,0.00,VWS V14.01,2013-03-22 14:18:00,
2013-03-22 09:23:00,37.6,27.6,27.02,WNW,292,5.8,7.6,67,0.00,,---,0.00,VWS V14.01,2013-03-22 14:23:00,
2013-03-22 09:28:00,38.1,27.0,27.02,WSW,248,6.3,8.1,64,0.00,,---,0.00,VWS V14.01,2013-03-22 14:28:00,
2013-03-22 09:30:00,44.4,27.4,27.02,West,270,3.8,11.2,51,0.00,,---,0.00,VWS V14.01,2013-03-22 14:30:00,
2013-03-22 09:33:00,38.5,27.0,27.05,NW,315,7.6,7.6,63,0.00,,---,0.00,VWS V14.01,2013-03-22 14:33:00,
2013-03-22 09:38:00,39.0,27.5,27.05,West,270,5.4,7.6,63,0.00,,---,0.00,VWS V14.01,2013-03-22 14:38:00,
2013-03-22 09:43:00,39.6,26.8,27.05,West,270,7.2,8.5,60,0.00,,---,0.00,VWS V14.01,2013-03-22 14:43:00,
2013-03-22 09:45:00,45.3,27.3,27.02,NW,315,6.3,12.1,49,0.00,,---,0.00,VWS V14.01,2013-03-22 14:45:00,
2013-03-22 09:48:00,39.7,26.6,27.02,West,270,7.4,8.7,59,0.00,,---,0.00,VWS V14.01,2013-03-22 14:48:00,
2013-03-22 09:53:00,40.3,27.1,27.02,WNW,292,7.6,8.7,59,0.00,,---,0.00,VWS V14.01,2013-03-22 14:53:00,
2013-03-22 09:58:00,40.6,26.6,27.02,WSW,248,6.5,10.5,57,0.00,,---,0.00,VWS V14.01,2013-03-22 14:58:00,
2013-03-22 10:00:00,45.9,27.3,27.02,North,0,10.1,12.8,48,0.00,,---,0.00,VWS V14.01,2013-03-22 15:00:00,
2013-03-22 10:03:00,40.8,26.4,27.02,WNW,292,4.3,9.6,56,0.00,,---,0.00,VWS V14.01,2013-03-22 15:03:00,
2013-03-22 10:08:00,41.7,27.2,27.02,West,270,5.8,9.6,56,0.00,,---,0.00,VWS V14.01,2013-03-22 15:08:00,
2013-03-22 10:13:00,42.6,27.6,27.02,WNW,292,6.9,9.6,55,0.00,,---,0.00,VWS V14.01,2013-03-22 15:13:00,
2013-03-22 10:15:00,46.0,27.0,27.02,NW,315,7.6,13.9,47,0.00,,---,0.00,VWS V14.01,2013-03-22 15:15:00,
2013-03-22 10:18:00,42.8,27.3,27.02,West,270,7.6,8.5,54,0.00,,---,0.00,VWS V14.01,2013-03-22 15:18:00,
2013-03-22 10:23:00,44.1,27.6,27.02,West,270,6.3,8.5,52,0.00,,---,0.00,VWS V14.01,2013-03-22 15:23:00,
2013-03-22 10:28:00,43.9,26.9,27.02,NW,315,10.1,11.2,51,0.00,,---,0.00,VWS V14.01,2013-03-22 15:28:00,
2013-03-22 10:30:00,46.0,26.4,26.99,North,0,6.0,15.2,46,0.00,,---,0.00,VWS V14.01,2013-03-22 15:30:00,
2013-03-22 10:33:00,44.6,27.1,27.02,NW,315,8.7,10.7,50,0.00,,---,0.00,VWS V14.01,2013-03-22 15:33:00,
2013-03-22 10:38:00,44.2,26.8,27.02,NW,315,6.3,11.0,50,0.00,,---,0.00,VWS V14.01,2013-03-22 15:38:00,
2013-03-22 10:43:00,45.1,27.1,27.02,NW,315,12.1,12.1,49,0.00,,---,0.00,VWS V14.01,2013-03-22 15:43:00,
2013-03-22 10:45:00,46.8,27.1,27.02,NW,315,10.3,14.5,46,0.00,,---,0.00,VWS V14.01,2013-03-22 15:45:00,
2013-03-22 10:48:00,44.8,26.8,27.02,NW,315,8.1,12.3,49,0.00,,---,0.00,VWS V14.01,2013-03-22 15:48:00,
2013-03-22 10:53:00,45.3,26.8,27.02,NW,315,12.8,12.8,48,0.00,,---,0.00,VWS V14.01,2013-03-22 15:53:00,
2013-03-22 10:58:00,45.9,27.3,27.02,NNE,22,6.5,12.8,48,0.00,,---,0.00,VWS V14.01,2013-03-22 15:58:00,
2013-03-22 11:00:00,47.3,27.6,26.99,NNW,338,12.5,16.3,46,0.00,,---,0.00,VWS V14.01,2013-03-22 16:00:00,
2013-03-22 11:03:00,45.7,27.1,27.02,North,0,6.3,10.7,48,0.00,,---,0.00,VWS V14.01,2013-03-22 16:03:00,
2013-03-22 11:08:00,45.7,27.1,27.02,NW,315,13.9,13.9,48,0.00,,---,0.00,VWS V14.01,2013-03-22 16:08:00,
2013-03-22 11:13:00,46.0,27.5,27.02,NW,315,12.8,13.9,48,0.00,,---,0.00,VWS V14.01,2013-03-22 16:13:00,
2013-03-22 11:15:00,47.8,27.5,27.02,NW,315,8.1,14.8,45,0.00,,---,0.00,VWS V14.01,2013-03-22 16:15:00,
2013-03-22 11:18:00,46.0,27.0,26.99,NNW,338,8.5,13.2,47,0.00,,---,0.00,VWS V14.01,2013-03-22 16:18:00,
2013-03-22 11:23:00,46.2,27.1,26.99,NW,315,15.2,15.2,47,0.00,,---,0.00,VWS V14.01,2013-03-22 16:23:00,
2013-03-22 11:28:00,45.9,26.3,26.99,NNW,338,11.0,15.2,46,0.00,,---,0.00,VWS V14.01,2013-03-22 16:28:00,
2013-03-22 11:30:00,47.5,26.7,27.02,NW,315,12.5,17.2,44,0.00,,---,0.00,VWS V14.01,2013-03-22 16:30:00,
2013-03-22 11:33:00,46.2,27.1,27.02,North,0,12.3,13.0,47,0.00,,---,0.00,VWS V14.01,2013-03-22 16:33:00,
2013-03-22 11:38:00,46.9,27.3,27.02,NW,315,13.0,14.5,46,0.00,,---,0.00,VWS V14.01,2013-03-22 16:38:00,
2013-03-22 11:43:00,46.4,26.8,27.02,NW,315,8.1,14.5,46,0.00,,---,0.00,VWS V14.01,2013-03-22 16:43:00,
2013-03-22 11:45:00,48.0,27.2,27.02,West,270,12.1,16.3,44,0.00,,---,0.00,VWS V14.01,2013-03-22 16:45:00,
2013-03-22 11:48:00,46.8,27.1,26.99,North,0,8.5,16.3,46,0.00,,---,0.00,VWS V14.01,2013-03-22 16:48:00,
2013-03-22 11:53:00,46.6,26.9,26.99,NW,315,8.5,16.3,46,0.00,,---,0.00,VWS V14.01,2013-03-22 16:53:00,
2013-03-22 11:58:00,46.8,26.6,26.99,North,0,10.1,16.3,45,0.00,,---,0.00,VWS V14.01,2013-03-22 16:58:00,
2013-03-22 12:00:00,49.6,28.1,27.02,NW,315,5.8,19.9,43,0.00,,---,0.00,VWS V14.01,2013-03-22 17:00:00,
2013-03-22 12:03:00,47.5,27.8,27.02,North,0,10.1,14.8,46,0.00,,---,0.00,VWS V14.01,2013-03-22 17:03:00,
2013-03-22 12:08:00,47.8,28.1,27.02,North,0,9.8,14.8,46,0.00,,---,0.00,VWS V14.01,2013-03-22 17:08:00,
2013-03-22 12:13:00,48.0,27.7,27.02,NNE,22,9.8,14.8,45,0.00,,---,0.00,VWS V14.01,2013-03-22 17:13:00,
2013-03-22 12:15:00,49.6,27.5,27.02,NW,315,12.1,17.9,42,0.00,,---,0.00,VWS V14.01,2013-03-22 17:15:00,
2013-03-22 12:18:00,48.2,27.3,27.02,NW,315,9.8,10.5,44,0.00,,---,0.00,VWS V14.01,2013-03-22 17:18:00,
2013-03-22 12:23:00,48.2,27.3,27.02,North,0,10.5,15.9,44,0.00,,---,0.00,VWS V14.01,2013-03-22 17:23:00,
2013-03-22 12:28:00,48.0,27.2,27.02,NW,315,14.5,17.2,44,0.00,,---,0.00,VWS V14.01,2013-03-22 17:28:00,
2013-03-22 12:30:00,51.4,28.5,27.02,NW,315,6.7,16.8,41,0.00,,---,0.00,VWS V14.01,2013-03-22 17:30:00,
2013-03-22 12:33:00,47.3,26.5,27.02,NW,315,14.5,15.4,44,0.00,,---,0.00,VWS V14.01,2013-03-22 17:33:00,
2013-03-22 12:38:00,47.8,27.0,27.02,NW,315,10.7,15.4,44,0.00,,---,0.00,VWS V14.01,2013-03-22 17:38:00,
2013-03-22 12:43:00,48.6,27.1,27.02,NW,315,11.0,15.4,43,0.00,,---,0.00,VWS V14.01,2013-03-22 17:43:00,
2013-03-22 12:45:00,51.6,28.1,27.02,North,0,9.2,12.8,40,0.00,,---,0.00,VWS V14.01,2013-03-22 17:45:00,
2013-03-22 12:48:00,48.4,26.9,27.02,NW,315,17.0,17.0,43,0.00,,---,0.00,VWS V14.01,2013-03-22 17:48:00,
2013-03-22 12:53:00,48.9,28.0,27.02,North,0,10.5,19.9,44,0.00,,---,0.00,VWS V14.01,2013-03-22 17:53:00,
2013-03-22 12:58:00,49.5,27.9,27.02,North,0,8.5,19.9,43,0.00,,---,0.00,VWS V14.01,2013-03-22 17:58:00,
2013-03-22 13:00:00,53.2,29.6,27.02,NE,45,6.0,14.3,40,0.00,,---,0.00,VWS V14.01,2013-03-22 18:00:00,
2013-03-22 13:03:00,49.6,27.5,27.02,NNW,338,6.9,13.2,42,0.00,,---,0.00,VWS V14.01,2013-03-22 18:03:00,
2013-03-22 13:08:00,50.0,27.8,27.02,NW,315,8.7,13.2,42,0.00,,---,0.00,VWS V14.01,2013-03-22 18:08:00,
2013-03-22 13:13:00,50.2,28.0,27.02,NNW,338,11.0,15.7,42,0.00,,---,0.00,VWS V14.01,2013-03-22 18:13:00,
2013-03-22 13:15:00,53.4,29.1,27.02,NW,315,7.2,15.4,39,0.00,,---,0.00,VWS V14.01,2013-03-22 18:15:00,
2013-03-22 13:18:00,49.6,27.5,27.02,NW,315,12.1,16.8,42,0.00,,---,0.00,VWS V14.01,2013-03-22 18:18:00,
2013-03-22 13:23:00,50.7,27.9,27.02,NNW,338,10.1,16.8,41,0.00,,---,0.00,VWS V14.01,2013-03-22 18:23:00,
2013-03-22 13:28:00,51.4,28.5,27.02,NW,315,5.8,16.8,41,0.00,,---,0.00,VWS V14.01,2013-03-22 18:28:00,
2013-03-22 13:30:00,53.1,28.8,26.99,NE,45,6.3,14.5,39,0.00,,---,0.00,VWS V14.01,2013-03-22 18:30:00,
2013-03-22 13:33:00,51.4,28.5,27.02,NW,315,8.1,10.1,41,0.00,,---,0.00,VWS V14.01,2013-03-22 18:33:00,
2013-03-22 13:38:00,51.6,28.1,27.02,NW,315,10.1,12.8,40,0.00,,---,0.00,VWS V14.01,2013-03-22 18:38:00,
2013-03-22 13:43:00,51.6,28.1,27.02,NW,315,6.7,12.8,40,0.00,,---,0.00,VWS V14.01,2013-03-22 18:43:00,
2013-03-22 13:45:00,54.5,29.4,26.99,NE,45,7.8,18.1,38,0.00,,---,0.00,VWS V14.01,2013-03-22 18:45:00,
2013-03-22 13:48:00,52.5,28.9,27.02,North,0,6.0,9.2,40,0.00,,---,0.00,VWS V14.01,2013-03-22 18:48:00,
2013-03-22 13:53:00,52.5,28.3,27.02,North,0,6.0,12.3,39,0.00,,---,0.00,VWS V14.01,2013-03-22 18:53:00,
2013-03-22 13:58:00,52.5,28.9,27.02,NE,45,5.6,14.3,40,0.00,,---,0.00,VWS V14.01,2013-03-22 18:58:00,
2013-03-22 14:00:00,54.7,28.9,26.99,NNE,22,7.2,13.2,37,0.00,,---,0.00,VWS V14.01,2013-03-22 19:00:00,
2013-03-22 14:03:00,53.2,28.9,27.02,North,0,8.1,15.4,39,0.00,,---,0.00,VWS V14.01,2013-03-22 19:03:00,
2013-03-22 14:08:00,52.7,28.5,27.02,North,0,7.6,15.4,39,0.00,,---,0.00,VWS V14.01,2013-03-22 19:08:00,
2013-03-22 14:13:00,53.1,28.8,27.02,North,0,6.0,15.4,39,0.00,,---,0.00,VWS V14.01,2013-03-22 19:13:00,
2013-03-22 14:15:00,57.0,30.4,26.96,NNE,22,2.9,13.6,36,0.00,,---,0.00,VWS V14.01,2013-03-22 19:15:00,
2013-03-22 14:18:00,53.8,28.8,26.99,NW,315,10.5,10.7,38,0.00,,---,0.00,VWS V14.01,2013-03-22 19:18:00,
2013-03-22 14:23:00,54.3,29.3,26.99,North,0,8.7,12.3,38,0.00,,---,0.00,VWS V14.01,2013-03-22 19:23:00,
2013-03-22 14:28:00,52.9,28.6,26.99,North,0,5.4,14.5,39,0.00,,---,0.00,VWS V14.01,2013-03-22 19:28:00,
2013-03-22 14:30:00,55.0,28.6,26.96,North,0,4.3,12.1,36,0.00,,---,0.00,VWS V14.01,2013-03-22 19:30:00,
2013-03-22 14:33:00,53.1,28.8,26.99,North,0,8.7,18.1,39,0.00,,---,0.00,VWS V14.01,2013-03-22 19:33:00,
2013-03-22 14:38:00,53.4,29.1,26.99,North,0,6.7,18.1,39,0.00,,---,0.00,VWS V14.01,2013-03-22 19:38:00,
2013-03-22 14:43:00,54.0,29.0,26.99,North,0,7.6,18.1,38,0.00,,---,0.00,VWS V14.01,2013-03-22 19:43:00,
2013-03-22 14:45:00,55.8,29.2,26.96,North,0,7.8,12.8,36,0.00,,---,0.00,VWS V14.01,2013-03-22 19:45:00,
2013-03-22 14:48:00,54.1,29.1,26.99,NE,45,8.7,10.7,38,0.00,,---,0.00,VWS V14.01,2013-03-22 19:48:00,
2013-03-22 14:53:00,54.0,28.3,26.99,North,0,8.5,13.2,37,0.00,,---,0.00,VWS V14.01,2013-03-22 19:53:00,
2013-03-22 14:58:00,54.7,28.9,26.99,North,0,10.3,13.2,37,0.00,,---,0.00,VWS V14.01,2013-03-22 19:58:00,
2013-03-22 15:00:00,57.6,29.4,26.96,North,0,10.7,11.2,34,0.00,,---,0.00,VWS V14.01,2013-03-22 20:00:00,
2013-03-22 15:03:00,54.5,28.8,26.96,NNE,22,13.6,13.6,37,0.00,,---,0.00,VWS V14.01,2013-03-22 20:03:00,
2013-03-22 15:08:00,55.6,29.1,26.96,North,0,8.5,13.6,36,0.00,,---,0.00,VWS V14.01,2013-03-22 20:08:00,
2013-03-22 15:13:00,55.6,29.1,26.96,NNE,22,3.4,13.6,36,0.00,,---,0.00,VWS V14.01,2013-03-22 20:13:00,
2013-03-22 15:15:00,57.0,27.5,26.96,North,0,5.4,13.2,32,0.00,,---,0.00,VWS V14.01,2013-03-22 20:15:00,
2013-03-22 15:18:00,58.1,31.3,26.96,NW,315,9.4,10.3,36,0.00,,---,0.00,VWS V14.01,2013-03-22 20:18:00,
2013-03-22 15:23:00,56.7,30.0,26.96,NW,315,10.1,10.5,36,0.00,,---,0.00,VWS V14.01,2013-03-22 20:23:00,
2013-03-22 15:28:00,55.6,29.1,26.96,West,270,6.3,12.1,36,0.00,,---,0.00,VWS V14.01,2013-03-22 20:28:00,
2013-03-22 15:30:00,58.5,27.2,26.96,NW,315,6.0,12.1,30,0.00,,---,0.00,VWS V14.01,2013-03-22 20:30:00,
2013-03-22 15:33:00,55.0,29.3,26.96,North,0,5.4,8.1,37,0.00,,---,0.00,VWS V14.01,2013-03-22 20:33:00,
2013-03-22 15:38:00,54.7,28.3,26.96,NNW,338,7.8,12.8,36,0.00,,---,0.00,VWS V14.01,2013-03-22 20:38:00,
2013-03-22 15:43:00,55.6,29.1,26.96,North,0,5.4,12.8,36,0.00,,---,0.00,VWS V14.01,2013-03-22 20:43:00,
2013-03-22 15:45:00,56.7,26.4,26.96,North,0,7.8,10.7,31,0.00,,---,0.00,VWS V14.01,2013-03-22 20:45:00,
2013-03-22 15:48:00,56.3,29.7,26.96,North,0,5.8,9.6,36,0.00,,---,0.00,VWS V14.01,2013-03-22 20:48:00,
2013-03-22 15:53:00,56.7,29.3,26.96,NNW,338,6.0,11.2,35,0.00,,---,0.00,VWS V14.01,2013-03-22 20:53:00,
2013-03-22 15:58:00,57.2,29.1,26.96,NNW,338,3.4,11.2,34,0.00,,---,0.00,VWS V14.01,2013-03-22 20:58:00,
2013-03-22 16:00:00,55.9,25.8,26.96,East,90,3.8,10.7,31,0.00,,---,0.00,VWS V14.01,2013-03-22 21:00:00,
2013-03-22 16:03:00,56.7,28.6,26.96,NNE,22,6.0,11.4,34,0.00,,---,0.00,VWS V14.01,2013-03-22 21:03:00,
2013-03-22 16:08:00,56.1,27.4,26.96,East,90,5.4,13.2,33,0.00,,---,0.00,VWS V14.01,2013-03-22 21:08:00,
2013-03-22 16:13:00,56.7,27.2,26.96,North,0,4.3,13.2,32,0.00,,---,0.00,VWS V14.01,2013-03-22 21:13:00,
2013-03-22 16:15:00,56.3,25.3,26.96,NNE,22,7.2,15.2,30,0.00,,---,0.00,VWS V14.01,2013-03-22 21:15:00,
2013-03-22 16:18:00,58.3,28.6,26.96,East,90,2.5,6.0,32,0.00,,---,0.00,VWS V14.01,2013-03-22 21:18:00,
2013-03-22 16:23:00,59.0,28.4,26.96,North,0,8.5,8.5,31,0.00,,---,0.00,VWS V14.01,2013-03-22 21:23:00,
2013-03-22 16:28:00,58.6,28.1,26.96,NNE,22,1.6,12.1,31,0.00,,---,0.00,VWS V14.01,2013-03-22 21:28:00,
2013-03-22 16:30:00,56.5,25.4,26.96,NW,315,4.9,9.8,30,0.00,,---,0.00,VWS V14.01,2013-03-22 21:30:00,
2013-03-22 16:33:00,58.1,26.0,26.96,North,0,6.5,7.6,29,0.00,,---,0.00,VWS V14.01,2013-03-22 21:33:00,
2013-03-22 16:38:00,57.4,26.2,26.96,NE,45,6.3,9.8,30,0.00,,---,0.00,VWS V14.01,2013-03-22 21:38:00,
2013-03-22 16:43:00,56.8,25.8,26.96,North,0,7.8,10.7,30,0.00,,---,0.00,VWS V14.01,2013-03-22 21:43:00,
2013-03-22 16:45:00,54.3,22.8,26.96,NE,45,4.3,9.2,29,0.00,,---,0.00,VWS V14.01,2013-03-22 21:45:00,
2013-03-22 16:48:00,57.2,26.1,26.96,West,270,3.1,7.8,30,0.00,,---,0.00,VWS V14.01,2013-03-22 21:48:00,
2013-03-22 16:53:00,56.1,25.1,26.96,North,0,8.5,8.5,30,0.00,,---,0.00,VWS V14.01,2013-03-22 21:53:00,
2013-03-22 16:58:00,55.4,25.3,26.96,NW,315,5.8,10.7,31,0.00,,---,0.00,VWS V14.01,2013-03-22 21:58:00,
2013-03-22 17:00:00,50.4,21.6,26.93,ENE,68,6.0,9.6,32,0.00,,---,0.00,VWS V14.01,2013-03-22 22:00:00,
2013-03-22 17:03:00,57.2,26.9,26.96,NE,45,1.3,5.8,31,0.00,,---,0.00,VWS V14.01,2013-03-22 22:03:00,
2013-03-22 17:08:00,56.7,26.4,26.96,NNE,22,10.5,15.2,31,0.00,,---,0.00,VWS V14.01,2013-03-22 22:08:00,
2013-03-22 17:13:00,55.8,24.8,26.96,North,0,5.4,15.2,30,0.00,,---,0.00,VWS V14.01,2013-03-22 22:13:00,
2013-03-22 17:15:00,49.3,22.8,26.96,NE,45,7.8,9.8,35,0.00,,---,0.00,VWS V14.01,2013-03-22 22:15:00,
2013-03-22 17:18:00,56.3,25.3,26.96,North,0,3.1,7.8,30,0.00,,---,0.00,VWS V14.01,2013-03-22 22:18:00,
2013-03-22 17:23:00,57.0,25.9,26.96,NNE,22,6.5,9.8,30,0.00,,---,0.00,VWS V14.01,2013-03-22 22:23:00,
2013-03-22 17:28:00,56.7,25.6,26.96,North,0,7.6,9.8,30,0.00,,---,0.00,VWS V14.01,2013-03-22 22:28:00,
2013-03-22 17:30:00,48.7,23.0,26.96,East,90,6.5,10.7,36,0.00,,---,0.00,VWS V14.01,2013-03-22 22:30:00,
2013-03-22 17:33:00,56.3,25.3,26.96,NNE,22,9.2,9.2,30,0.00,,---,0.00,VWS V14.01,2013-03-22 22:33:00,
2013-03-22 17:38:00,55.8,24.0,26.96,NNE,22,6.0,9.2,29,0.00,,---,0.00,VWS V14.01,2013-03-22 22:38:00,
2013-03-22 17:43:00,55.4,23.7,26.96,ENE,68,3.4,9.2,29,0.00,,---,0.00,VWS V14.01,2013-03-22 22:43:00,
2013-03-22 17:45:00,48.2,23.2,26.96,NE,45,10.3,11.9,37,0.00,,---,0.00,VWS V14.01,2013-03-22 22:45:00,
2013-03-22 17:48:00,54.3,22.8,26.96,NNE,22,5.4,6.7,29,0.00,,---,0.00,VWS V14.01,2013-03-22 22:48:00,
2013-03-22 17:53:00,51.6,21.2,26.93,NE,45,5.8,9.6,30,0.00,,---,0.00,VWS V14.01,2013-03-22 22:53:00,
2013-03-22 17:58:00,50.5,21.8,26.93,NE,45,4.9,9.6,32,0.00,,---,0.00,VWS V14.01,2013-03-22 22:58:00,
2013-03-22 18:00:00,47.5,23.2,26.96,East,90,9.6,11.0,38,0.00,,---,0.00,VWS V14.01,2013-03-22 23:00:00,
2013-03-22 18:03:00,50.0,22.0,26.96,NE,45,6.3,9.8,33,0.00,,---,0.00,VWS V14.01,2013-03-22 23:03:00,
2013-03-22 18:08:00,49.5,22.3,26.96,NE,45,6.5,9.8,34,0.00,,---,0.00,VWS V14.01,2013-03-22 23:08:00,
2013-03-22 18:13:00,49.5,23.0,26.96,NNE,22,7.6,9.8,35,0.00,,---,0.00,VWS V14.01,2013-03-22 23:13:00,
2013-03-22 18:15:00,46.6,22.4,26.96,NE,45,6.3,9.6,38,0.00,,---,0.00,VWS V14.01,2013-03-22 23:15:00,
2013-03-22 18:18:00,49.1,22.6,26.96,NE,45,6.3,10.5,35,0.00,,---,0.00,VWS V14.01,2013-03-22 23:18:00,
2013-03-22 18:23:00,48.9,22.5,26.96,NE,45,10.7,10.7,35,0.00,,---,0.00,VWS V14.01,2013-03-22 23:23:00,
2013-03-22 18:28:00,48.7,23.0,26.96,NE,45,7.4,10.7,36,0.00,,---,0.00,VWS V14.01,2013-03-22 23:28:00,
2013-03-22 18:30:00,46.0,22.5,26.96,NE,45,7.4,11.9,39,0.00,,---,0.00,VWS V14.01,2013-03-22 23:30:00,
2013-03-22 18:33:00,48.6,22.8,26.96,NE,45,7.8,11.9,36,0.00,,---,0.00,VWS V14.01,2013-03-22 23:33:00,
2013-03-22 18:38:00,48.4,22.7,26.96,NE,45,8.1,11.9,36,0.00,,---,0.00,VWS V14.01,2013-03-22 23:38:00,
2013-03-22 18:43:00,48.4,23.3,26.96,NE,45,5.8,11.9,37,0.00,,---,0.00,VWS V14.01,2013-03-22 23:43:00,
2013-03-22 18:45:00,45.3,21.8,26.96,East,90,7.4,11.4,39,0.00,,---,0.00,VWS V14.01,2013-03-22 23:45:00,
2013-03-22 18:48:00,48.0,23.6,26.96,NE,45,7.8,10.3,38,0.00,,---,0.00,VWS V14.01,2013-03-22 23:48:00,
2013-03-22 18:53:00,47.8,23.5,26.96,NE,45,8.5,10.3,38,0.00,,---,0.00,VWS V14.01,2013-03-22 23:53:00,
2013-03-22 18:58:00,47.7,23.3,26.96,NE,45,7.4,11.0,38,0.00,,---,0.00,VWS V14.01,2013-03-22 23:58:00,
2013-03-22 19:00:00,44.2,24.3,26.96,ESE,112,11.9,14.8,45,0.00,,---,0.00,VWS V14.01,2013-03-23 00:00:00,
2013-03-22 19:03:00,47.3,23.0,26.96,ENE,68,5.8,9.6,38,0.00,,---,0.00,VWS V14.01,2013-03-23 00:03:00,
2013-03-22 19:08:00,46.9,22.7,26.96,NE,45,4.9,9.6,38,0.00,,---,0.00,VWS V14.01,2013-03-23 00:08:00,
2013-03-22 19:13:00,46.8,22.5,26.96,East,90,8.1,9.6,38,0.00,,---,0.00,VWS V14.01,2013-03-23 00:13:00,
2013-03-22 19:15:00,43.3,25.5,26.96,East,90,10.3,12.5,49,0.00,,---,0.00,VWS V14.01,2013-03-23 00:15:00,
2013-03-22 19:18:00,46.4,22.2,26.96,East,90,7.6,9.6,38,0.00,,---,0.00,VWS V14.01,2013-03-23 00:18:00,
2013-03-22 19:23:00,46.2,22.6,26.96,NE,45,5.8,9.6,39,0.00,,---,0.00,VWS V14.01,2013-03-23 00:23:00,
2013-03-22 19:28:00,46.2,22.6,26.96,NE,45,7.8,9.6,39,0.00,,---,0.00,VWS V14.01,2013-03-23 00:28:00,
2013-03-22 19:30:00,42.4,25.1,26.99,ENE,68,10.5,13.2,50,0.00,,---,0.00,VWS V14.01,2013-03-23 00:30:00,
2013-03-22 19:33:00,45.9,22.3,26.96,NE,45,6.0,7.4,39,0.00,,---,0.00,VWS V14.01,2013-03-23 00:33:00,
2013-03-22 19:38:00,45.7,22.2,26.96,East,90,6.9,8.7,39,0.00,,---,0.00,VWS V14.01,2013-03-23 00:38:00,
2013-03-22 19:43:00,45.7,22.2,26.96,East,90,7.8,11.4,39,0.00,,---,0.00,VWS V14.01,2013-03-23 00:43:00,
2013-03-22 19:45:00,41.2,24.9,26.96,ENE,68,7.8,13.6,52,0.00,,---,0.00,VWS V14.01,2013-03-23 00:45:00,
2013-03-22 19:48:00,45.1,21.7,26.96,ESE,112,5.8,7.8,39,0.00,,---,0.00,VWS V14.01,2013-03-23 00:48:00,
2013-03-22 19:53:00,44.8,23.1,26.96,ENE,68,8.5,10.5,42,0.00,,---,0.00,VWS V14.01,2013-03-23 00:53:00,
2013-03-22 19:58:00,44.4,23.9,26.96,East,90,8.7,14.8,44,0.00,,---,0.00,VWS V14.01,2013-03-23 00:58:00,
2013-03-22 20:00:00,40.5,25.1,26.99,NE,45,7.6,13.2,54,0.00,,---,0.00,VWS V14.01,2013-03-23 01:00:00,
2013-03-22 20:03:00,44.1,24.6,26.96,East,90,8.5,11.9,46,0.00,,---,0.00,VWS V14.01,2013-03-23 01:03:00,
2013-03-22 20:08:00,43.7,24.8,26.96,SE,135,10.3,12.5,47,0.00,,---,0.00,VWS V14.01,2013-03-23 01:08:00,
2013-03-22 20:13:00,43.5,25.1,26.96,East,90,10.7,12.5,48,0.00,,---,0.00,VWS V14.01,2013-03-23 01:13:00,
2013-03-22 20:15:00,39.7,24.9,26.99,East,90,8.5,12.3,55,0.00,,---,0.00,VWS V14.01,2013-03-23 01:15:00,
2013-03-22 20:18:00,43.2,25.3,26.99,East,90,10.1,10.7,49,0.00,,---,0.00,VWS V14.01,2013-03-23 01:18:00,
2013-03-22 20:23:00,42.8,25.0,26.99,ESE,112,10.5,10.7,49,0.00,,---,0.00,VWS V14.01,2013-03-23 01:23:00,
2013-03-22 20:28:00,42.6,25.3,26.99,East,90,13.2,13.2,50,0.00,,---,0.00,VWS V14.01,2013-03-23 01:28:00,
2013-03-22 20:33:00,42.3,25.0,26.96,ESE,112,11.4,11.4,50,0.00,,---,0.00,VWS V14.01,2013-03-23 01:33:00,
2013-03-22 20:38:00,41.9,25.1,26.96,ENE,68,6.5,13.6,51,0.00,,---,0.00,VWS V14.01,2013-03-23 01:38:00,
2013-03-22 20:43:00,41.5,24.8,26.96,NE,45,9.8,13.6,51,0.00,,---,0.00,VWS V14.01,2013-03-23 01:43:00,
2013-03-22 20:45:00,39.0,25.5,27.02,NE,45,8.1,12.8,58,0.00,,---,0.00,VWS V14.01,2013-03-23 01:45:00,
2013-03-22 20:48:00,41.0,24.7,26.99,East,90,10.5,12.8,52,0.00,,---,0.00,VWS V14.01,2013-03-23 01:48:00,
2013-03-22 20:53:00,40.8,25.0,26.99,NE,45,9.8,12.8,53,0.00,,---,0.00,VWS V14.01,2013-03-23 01:53:00,
2013-03-22 20:58:00,40.6,24.9,26.99,NE,45,8.7,13.2,53,0.00,,---,0.00,VWS V14.01,2013-03-23 01:58:00,
2013-03-22 21:03:00,40.3,25.0,26.99,East,90,12.1,12.1,54,0.00,,---,0.00,VWS V14.01,2013-03-23 02:03:00,
2013-03-22 21:08:00,40.1,24.8,26.99,East,90,6.3,12.1,54,0.00,,---,0.00,VWS V14.01,2013-03-23 02:08:00,
2013-03-22 21:13:00,39.9,25.1,26.99,ENE,68,10.5,12.1,55,0.00,,---,0.00,VWS V14.01,2013-03-23 02:13:00,
2013-03-22 21:15:00,37.0,29.5,27.02,East,90,11.0,12.8,74,0.00,,---,0.00,VWS V14.01,2013-03-23 02:15:00,
2013-03-22 21:18:00,39.7,24.9,26.99,ENE,68,6.7,12.1,55,0.00,,---,0.00,VWS V14.01,2013-03-23 02:18:00,
2013-03-22 21:23:00,39.6,25.2,26.99,ENE,68,6.5,12.1,56,0.00,,---,0.00,VWS V14.01,2013-03-23 02:23:00,
2013-03-22 21:28:00,39.4,25.0,26.99,East,90,10.5,12.8,56,0.00,,---,0.00,VWS V14.01,2013-03-23 02:28:00,
2013-03-22 21:30:00,35.8,31.1,27.05,East,90,6.9,11.0,83,0.00,,---,0.00,VWS V14.01,2013-03-23 02:30:00,
2013-03-22 21:33:00,39.2,25.3,27.02,NE,45,10.3,12.8,57,0.00,,---,0.00,VWS V14.01,2013-03-23 02:33:00,
2013-03-22 21:38:00,39.2,25.3,27.02,East,90,9.6,12.8,57,0.00,,---,0.00,VWS V14.01,2013-03-23 02:38:00,
2013-03-22 21:43:00,39.2,25.3,27.02,ESE,112,5.6,12.8,57,0.00,,---,0.00,VWS V14.01,2013-03-23 02:43:00,
2013-03-22 21:45:00,34.9,32.0,27.08,East,90,5.4,12.1,89,0.00,,---,0.00,VWS V14.01,2013-03-23 02:45:00,
2013-03-22 21:48:00,39.0,25.5,27.02,East,90,11.0,12.8,58,0.00,,---,0.00,VWS V14.01,2013-03-23 02:48:00,
2013-03-22 21:53:00,39.0,25.5,27.02,East,90,8.1,12.8,58,0.00,,---,0.00,VWS V14.01,2013-03-23 02:53:00,
2013-03-22 21:58:00,38.8,25.3,27.02,East,90,5.6,12.8,58,0.00,,---,0.00,VWS V14.01,2013-03-23 02:58:00,
2013-03-22 21:59:00,34.3,32.0,27.08,East,90,3.8,8.7,91,0.00,,---,0.00,VWS V14.01,2013-03-23 02:59:00,
2013-03-22 22:00:00,34.3,32.0,27.08,NE,45,6.3,8.7,91,0.00,,---,0.00,VWS V14.01,2013-03-23 03:00:00,
2013-03-22 22:01:00,34.3,32.0,27.08,East,90,6.3,6.9,91,0.00,,---,0.00,VWS V14.01,2013-03-23 03:01:00,
2013-03-22 22:02:00,34.3,32.0,27.08,NE,45,4.3,6.9,91,0.00,,---,0.00,VWS V14.01,2013-03-23 03:02:00,
2013-03-22 22:03:00,38.8,25.8,27.02,ENE,68,6.0,12.8,59,0.00,,---,0.00,VWS V14.01,2013-03-23 03:03:00,
2013-03-22 22:08:00,38.1,27.4,27.02,East,90,8.5,12.8,65,0.00,,---,0.00,VWS V14.01,2013-03-23 03:08:00,
2013-03-22 22:13:00,37.2,29.4,27.02,ENE,68,8.1,12.8,73,0.00,,---,0.00,VWS V14.01,2013-03-23 03:13:00,
2013-03-22 22:15:00,34.3,33.1,27.08,East,90,4.3,8.1,95,0.00,,---,0.00,VWS V14.01,2013-03-23 03:15:00,
2013-03-22 22:18:00,36.7,30.5,27.05,NE,45,6.7,11.0,78,0.00,,---,0.00,VWS V14.01,2013-03-23 03:18:00,
2013-03-22 22:23:00,36.3,30.8,27.05,NE,45,8.7,11.0,80,0.00,,---,0.00,VWS V14.01,2013-03-23 03:23:00,
2013-03-22 22:28:00,35.8,31.1,27.05,NE,45,7.6,11.0,83,0.00,,---,0.00,VWS V14.01,2013-03-23 03:28:00,
2013-03-22 22:30:00,34.0,32.7,27.08,ESE,112,7.4,7.4,95,0.00,,---,0.00,VWS V14.01,2013-03-23 03:30:00,
2013-03-22 22:33:00,35.4,31.4,27.08,East,90,7.8,7.8,85,0.00,,---,0.00,VWS V14.01,2013-03-23 03:33:00,
2013-03-22 22:38:00,35.2,31.5,27.08,ESE,112,4.0,7.8,86,0.00,,---,0.00,VWS V14.01,2013-03-23 03:38:00,
2013-03-22 22:43:00,35.1,31.9,27.08,East,90,4.9,7.8,88,0.00,,---,0.00,VWS V14.01,2013-03-23 03:43:00,
2013-03-22 22:45:00,33.8,33.0,27.08,East,90,4.9,9.6,97,0.00,,---,0.00,VWS V14.01,2013-03-23 03:45:00,
2013-03-22 22:48:00,34.9,32.2,27.08,SE,135,7.6,8.1,90,0.00,,---,0.00,VWS V14.01,2013-03-23 03:48:00,
2013-03-22 22:53:00,34.5,31.9,27.08,East,90,7.4,8.1,90,0.00,,---,0.00,VWS V14.01,2013-03-23 03:53:00,
2013-03-22 22:58:00,34.3,31.7,27.08,East,90,5.4,8.7,90,0.00,,---,0.00,VWS V14.01,2013-03-23 03:58:00,
2013-03-22 23:00:00,33.3,32.5,27.05,East,90,5.6,7.4,97,0.00,,---,0.00,VWS V14.01,2013-03-23 04:00:00,
2013-03-22 23:03:00,34.3,32.0,27.08,East,90,6.5,6.9,91,0.00,,---,0.00,VWS V14.01,2013-03-23 04:03:00,
2013-03-22 23:08:00,34.3,32.5,27.08,East,90,8.1,8.1,93,0.00,,---,0.00,VWS V14.01,2013-03-23 04:08:00,
2013-03-22 23:13:00,34.3,33.1,27.08,ESE,112,6.3,8.1,95,0.00,,---,0.00,VWS V14.01,2013-03-23 04:13:00,
2013-03-22 23:15:00,32.9,32.4,27.08,East,90,5.8,8.7,98,0.00,,---,0.00,VWS V14.01,2013-03-23 04:15:00,
2013-03-22 23:18:00,34.2,32.9,27.08,NE,45,5.4,6.0,95,0.00,,---,0.00,VWS V14.01,2013-03-23 04:18:00,
2013-03-22 23:23:00,34.0,32.7,27.08,ESE,112,3.6,6.5,95,0.00,,---,0.00,VWS V14.01,2013-03-23 04:23:00,
2013-03-22 23:28:00,34.0,32.7,27.08,SE,135,4.3,6.5,95,0.00,,---,0.00,VWS V14.01,2013-03-23 04:28:00,
2013-03-22 23:30:00,32.5,32.0,27.08,ESE,112,6.0,8.5,98,0.00,,---,0.00,VWS V14.01,2013-03-23 04:30:00,
2013-03-22 23:33:00,34.0,33.0,27.08,East,90,7.4,8.1,96,0.00,,---,0.00,VWS V14.01,2013-03-23 04:33:00,
2013-03-22 23:38:00,34.0,33.0,27.08,East,90,6.3,9.6,96,0.00,,---,0.00,VWS V14.01,2013-03-23 04:38:00,
2013-03-22 23:43:00,33.8,33.0,27.08,East,90,6.3,9.6,97,0.00,,---,0.00,VWS V14.01,2013-03-23 04:43:00,
2013-03-22 23:45:00,32.5,32.3,27.08,ESE,112,6.0,8.7,99,0.00,,---,0.00,VWS V14.01,2013-03-23 04:45:00,
2013-03-22 23:48:00,33.8,33.0,27.05,ENE,68,5.8,6.0,97,0.00,,---,0.00,VWS V14.01,2013-03-23 04:48:00,
2013-03-22 23:53:00,33.6,32.9,27.05,NE,45,6.3,6.5,97,0.00,,---,0.00,VWS V14.01,2013-03-23 04:53:00,
2013-03-22 23:58:00,33.3,32.5,27.05,ENE,68,4.3,7.4,97,0.00,,---,0.00,VWS V14.01,2013-03-23 04:58:00,